createdAt,value
2023-03-06T00:00:29.773Z,6.68
2023-03-06T00:02:57.044Z,7.20
2023-03-06T00:05:24.098Z,6.93
2023-03-06T00:07:51.059Z,7.45
2023-03-06T00:10:23.821Z,7.43
2023-03-06T00:12:55.767Z,7.90
2023-03-06T00:15:23.776Z,7.63
2023-03-06T00:17:51.088Z,7.43
2023-03-06T00:20:18.453Z,7.47
2023-03-06T00:22:45.365Z,8.68
2023-03-06T00:25:18.539Z,8.80
2023-03-06T00:27:45.754Z,9.48
2023-03-06T00:30:15.875Z,9.40
2023-03-06T00:32:43.474Z,9.77
2023-03-06T00:35:11.102Z,9.57
2023-03-06T00:37:38.461Z,10.95
2023-03-06T00:40:11.702Z,11.00
2023-03-06T00:42:38.655Z,10.40
2023-03-06T00:45:05.856Z,9.50
2023-03-06T00:47:33.027Z,11.40
2023-03-06T00:49:59.791Z,12.00
2023-03-06T00:52:26.650Z,11.48
2023-03-06T00:54:53.629Z,11.73
2023-03-06T00:57:20.489Z,12.43
2023-03-06T00:59:47.262Z,12.38
2023-03-06T01:02:14.543Z,12.05
2023-03-06T01:04:41.758Z,10.13
2023-03-06T01:07:08.660Z,10.47
2023-03-06T01:09:35.439Z,10.57
2023-03-06T01:12:02.275Z,9.80
2023-03-06T01:14:29.295Z,8.63
2023-03-06T01:16:56.268Z,10.13
2023-03-06T01:19:23.202Z,9.63
2023-03-06T01:21:50.783Z,10.02
2023-03-06T01:24:17.659Z,10.43
2023-03-06T01:26:45.042Z,10.63
2023-03-06T01:29:11.908Z,8.73
2023-03-06T01:31:39.008Z,9.70
2023-03-06T01:34:09.112Z,10.00
2023-03-06T01:36:36.003Z,9.90
2023-03-06T01:39:03.785Z,9.45
2023-03-06T01:41:32.566Z,8.15
2023-03-06T01:43:59.575Z,8.57
2023-03-06T01:46:30.190Z,8.95
2023-03-06T01:49:00.076Z,13.25
2023-03-06T01:51:32.053Z,20.63
2023-03-06T01:54:02.407Z,33.92
2023-03-06T01:56:30.027Z,33.20
2023-03-06T01:58:58.393Z,19.85
2023-03-06T02:01:26.279Z,23.10
2023-03-06T02:03:54.674Z,18.25
2023-03-06T02:06:22.758Z,12.02
2023-03-06T02:08:52.813Z,8.43
2023-03-06T02:11:24.407Z,7.55
2023-03-06T02:13:53.699Z,7.82
2023-03-06T02:16:25.966Z,7.65
2023-03-06T02:18:53.443Z,8.30
2023-03-06T02:21:27.204Z,7.07
2023-03-06T02:24:12.225Z,6.82
2023-03-06T02:26:41.210Z,7.43
2023-03-06T02:29:09.211Z,6.90
2023-03-06T02:31:36.164Z,7.22
2023-03-06T02:34:15.351Z,6.50
2023-03-06T02:36:47.676Z,6.95
2023-03-06T02:39:15.885Z,6.88
2023-03-06T02:41:42.897Z,7.22
2023-03-06T02:44:09.928Z,7.38
2023-03-06T02:46:36.780Z,6.33
2023-03-06T02:49:03.609Z,5.78
2023-03-06T02:51:30.475Z,6.47
2023-03-06T02:53:57.397Z,6.05
2023-03-06T02:56:24.399Z,6.13
2023-03-06T02:58:52.063Z,4.90
2023-03-06T03:01:19.794Z,6.82
2023-03-06T03:03:47.136Z,6.72
2023-03-06T03:06:14.836Z,6.85
2023-03-06T03:08:42.589Z,7.20
2023-03-06T03:11:10.183Z,7.87
2023-03-06T03:13:39.992Z,7.45
2023-03-06T03:16:15.361Z,7.97
2023-03-06T03:18:48.122Z,8.30
2023-03-06T03:21:17.264Z,8.32
2023-03-06T03:23:45.090Z,9.17
2023-03-06T03:26:15.835Z,9.82
2023-03-06T03:28:47.254Z,9.77
2023-03-06T03:31:17.285Z,9.15
2023-03-06T03:33:44.340Z,9.45
2023-03-06T03:36:12.349Z,9.77
2023-03-06T03:38:42.639Z,10.95
2023-03-06T03:41:10.022Z,9.40
2023-03-06T03:43:36.940Z,9.85
2023-03-06T03:46:04.505Z,10.00
2023-03-06T03:48:31.805Z,7.83
2023-03-06T03:51:11.874Z,8.82
2023-03-06T03:53:44.025Z,8.95
2023-03-06T03:56:13.296Z,7.90
2023-03-06T03:58:48.401Z,7.78
2023-03-06T04:01:15.579Z,7.47
2023-03-06T04:03:43.133Z,7.38
2023-03-06T04:06:11.358Z,5.78
2023-03-06T04:08:39.425Z,7.00
2023-03-06T04:11:06.399Z,6.55
2023-03-06T04:13:33.197Z,6.87
2023-03-06T04:16:00.684Z,5.80
2023-03-06T04:18:29.905Z,5.80
2023-03-06T04:21:01.169Z,5.75
2023-03-06T04:23:28.414Z,6.10
2023-03-06T04:25:56.166Z,5.47
2023-03-06T04:28:23.700Z,5.50
2023-03-06T04:30:51.227Z,5.18
2023-03-06T04:33:20.173Z,5.28
2023-03-06T04:35:47.122Z,5.43
2023-03-06T04:38:19.619Z,5.50
2023-03-06T04:40:46.712Z,5.75
2023-03-06T04:43:13.495Z,5.68
2023-03-06T04:45:40.373Z,5.30
2023-03-06T04:48:07.780Z,6.00
2023-03-06T04:50:35.300Z,6.07
2023-03-06T04:53:03.500Z,6.38
2023-03-06T04:55:30.867Z,6.20
2023-03-06T04:57:58.965Z,7.00
2023-03-06T05:00:31.714Z,6.68
2023-03-06T05:03:00.883Z,6.73
2023-03-06T05:05:28.346Z,6.88
2023-03-06T05:07:55.492Z,6.97
2023-03-06T05:10:23.410Z,6.82
2023-03-06T05:12:50.402Z,7.35
2023-03-06T05:15:17.950Z,6.73
2023-03-06T05:17:44.874Z,6.80
2023-03-06T05:20:12.534Z,7.30
2023-03-06T05:22:40.095Z,7.07
2023-03-06T05:25:07.507Z,7.30
2023-03-06T05:27:34.888Z,7.30
2023-03-06T05:30:01.861Z,8.05
2023-03-06T05:32:28.839Z,8.88
2023-03-06T05:34:55.780Z,8.02
2023-03-06T05:37:25.919Z,8.30
2023-03-06T05:39:52.981Z,8.10
2023-03-06T05:42:19.883Z,8.45
2023-03-06T05:44:46.873Z,8.45
2023-03-06T05:47:14.761Z,7.80
2023-03-06T05:49:41.725Z,8.30
2023-03-06T05:52:09.273Z,7.53
2023-03-06T05:54:37.614Z,7.90
2023-03-06T05:57:05.690Z,7.38
2023-03-06T05:59:39.590Z,7.13
2023-03-06T06:02:06.988Z,7.35
2023-03-06T06:04:33.969Z,7.40
2023-03-06T06:07:01.196Z,7.90
2023-03-06T06:09:28.624Z,7.60
2023-03-06T06:12:01.581Z,7.30
2023-03-06T06:14:29.808Z,6.80
2023-03-06T06:16:56.804Z,6.33
2023-03-06T06:19:24.013Z,6.32
2023-03-06T06:21:53.833Z,6.28
2023-03-06T06:24:23.115Z,5.97
2023-03-06T06:26:51.792Z,6.72
2023-03-06T06:29:19.149Z,5.93
2023-03-06T06:31:46.468Z,6.05
2023-03-06T06:34:14.299Z,5.47
2023-03-06T06:36:41.854Z,5.63
2023-03-06T06:39:09.753Z,5.85
2023-03-06T06:41:54.920Z,5.27
2023-03-06T06:44:23.671Z,5.15
2023-03-06T06:47:21.311Z,5.07
2023-03-06T06:49:37.455Z,5.32
2023-03-06T06:52:05.904Z,5.10
2023-03-06T06:54:34.225Z,4.87
2023-03-06T06:57:01.296Z,4.60
2023-03-06T06:59:28.240Z,4.70
2023-03-06T07:01:55.131Z,4.32
2023-03-06T07:04:21.959Z,4.20
2023-03-06T07:06:48.843Z,4.30
2023-03-06T07:09:16.422Z,4.15
2023-03-06T07:11:43.360Z,4.63
2023-03-06T07:14:10.235Z,3.88
2023-03-06T07:16:37.204Z,4.30
2023-03-06T07:19:04.413Z,3.70
2023-03-06T07:21:31.225Z,4.05
2023-03-06T07:23:58.058Z,4.20
2023-03-06T07:26:26.353Z,3.45
2023-03-06T07:28:54.076Z,3.28
2023-03-06T07:31:23.760Z,3.33
2023-03-06T07:33:51.217Z,3.15
2023-03-06T07:36:18.442Z,3.80
2023-03-06T07:38:45.549Z,3.40
2023-03-06T07:41:13.817Z,3.60
2023-03-06T07:43:41.900Z,3.23
2023-03-06T07:46:09.195Z,2.83
2023-03-06T07:48:37.717Z,3.35
2023-03-06T07:51:07.122Z,2.53
2023-03-06T07:53:35.512Z,2.90
2023-03-06T07:56:08.881Z,2.40
2023-03-06T07:58:38.060Z,2.65
2023-03-06T08:01:06.627Z,2.70
2023-03-06T08:03:33.895Z,2.60
2023-03-06T08:06:07.087Z,2.42
2023-03-06T08:08:35.503Z,2.50
2023-03-06T08:11:02.502Z,2.00
2023-03-06T08:13:29.385Z,2.20
2023-03-06T08:15:56.705Z,2.10
2023-03-06T08:18:23.680Z,2.25
2023-03-06T08:20:50.606Z,1.90
2023-03-06T08:23:17.625Z,2.10
2023-03-06T08:25:44.420Z,1.98
2023-03-06T08:28:11.267Z,2.00
2023-03-06T08:30:38.695Z,1.80
2023-03-06T08:33:05.534Z,1.80
2023-03-06T08:35:32.589Z,1.90
2023-03-06T08:37:59.408Z,1.90
2023-03-06T08:40:30.384Z,1.85
2023-03-06T08:42:57.173Z,1.70
2023-03-06T08:45:23.964Z,1.70
2023-03-06T08:47:50.768Z,1.70
2023-03-06T08:50:18.969Z,1.63
2023-03-06T08:52:45.763Z,1.48
2023-03-06T08:55:14.791Z,1.73
2023-03-06T08:57:41.876Z,1.60
2023-03-06T09:00:10.875Z,1.63
2023-03-06T09:02:37.851Z,1.60
2023-03-06T09:05:09.210Z,1.60
2023-03-06T09:07:36.343Z,1.80
2023-03-06T09:10:03.303Z,1.60
2023-03-06T09:12:32.656Z,1.60
2023-03-06T09:15:05.436Z,1.65
2023-03-06T09:17:32.341Z,1.60
2023-03-06T09:19:59.315Z,1.80
2023-03-06T09:22:26.098Z,1.60
2023-03-06T09:24:54.031Z,1.52
2023-03-06T09:27:22.773Z,1.60
2023-03-06T09:29:49.702Z,1.67
2023-03-06T09:32:16.575Z,1.60
2023-03-06T09:34:43.504Z,1.80
2023-03-06T09:37:10.374Z,1.55
2023-03-06T09:39:41.777Z,1.30
2023-03-06T09:42:15.143Z,1.10
2023-03-06T09:44:43.466Z,1.23
2023-03-06T09:47:35.246Z,1.40
2023-03-06T09:50:43.490Z,1.40
2023-03-06T09:53:19.549Z,1.48
2023-03-06T09:55:51.726Z,1.40
2023-03-06T09:58:22.967Z,1.40
2023-03-06T10:01:16.314Z,1.30
2023-03-06T10:03:55.021Z,1.30
2023-03-06T10:06:36.978Z,1.30
2023-03-06T10:09:19.150Z,1.50
2023-03-06T10:11:52.752Z,1.33
2023-03-06T10:14:43.809Z,1.20
2023-03-06T10:17:18.467Z,1.30
2023-03-06T10:19:47.668Z,1.30
2023-03-06T10:22:39.187Z,1.38
2023-03-06T10:25:26.077Z,1.50
2023-03-06T10:28:12.914Z,1.53
2023-03-06T10:31:03.269Z,1.50
2023-03-06T10:33:51.555Z,1.40
2023-03-06T10:36:21.455Z,1.30
2023-03-06T10:38:48.843Z,1.40
2023-03-06T10:41:29.917Z,1.53
2023-03-06T10:43:59.825Z,1.80
2023-03-06T10:46:39.239Z,1.50
2023-03-06T10:49:26.289Z,1.55
2023-03-06T10:51:59.339Z,1.80
2023-03-06T10:54:28.578Z,1.60
2023-03-06T10:56:55.553Z,1.50
2023-03-06T10:59:28.274Z,1.80
2023-03-06T11:02:14.237Z,1.73
2023-03-06T11:04:46.562Z,2.13
2023-03-06T11:07:21.608Z,1.80
2023-03-06T11:09:57.408Z,1.73
2023-03-06T11:12:42.514Z,1.80
2023-03-06T11:15:23.514Z,1.65
2023-03-06T11:18:07.503Z,1.90
2023-03-06T11:20:50.008Z,1.83
2023-03-06T11:23:38.354Z,2.00
2023-03-06T11:26:25.485Z,1.80
2023-03-06T11:29:15.845Z,1.50
2023-03-06T11:31:58.450Z,1.80
2023-03-06T11:34:34.779Z,1.60
2023-03-06T11:37:40.164Z,1.98
2023-03-06T11:40:40.337Z,1.90
2023-03-06T11:43:16.066Z,2.33
2023-03-06T11:45:47.285Z,2.45
2023-03-06T11:48:14.141Z,2.60
2023-03-06T11:50:42.941Z,2.45
2023-03-06T11:53:14.975Z,2.70
2023-03-06T11:56:03.514Z,3.03
2023-03-06T11:59:11.891Z,2.90
2023-03-06T12:01:38.820Z,3.13
2023-03-06T12:04:05.626Z,3.22
2023-03-06T12:06:56.748Z,3.28
2023-03-06T12:09:26.412Z,3.38
2023-03-06T12:15:12.238Z,4.10
2023-03-06T12:17:57.174Z,4.18
2023-03-06T12:20:48.322Z,4.88
2023-03-06T12:23:53.691Z,4.57
2023-03-06T12:26:48.638Z,4.60
2023-03-06T12:29:44.847Z,4.67
2023-03-06T12:32:35.111Z,4.70
2023-03-06T12:35:32.537Z,4.88
2023-03-06T12:38:08.009Z,4.80
2023-03-06T12:40:59.858Z,4.90
2023-03-06T12:43:50.665Z,5.40
2023-03-06T12:46:21.664Z,5.75
2023-03-06T12:49:03.046Z,5.80
2023-03-06T12:51:31.239Z,6.18
2023-03-06T12:54:00.054Z,6.00
2023-03-06T12:56:28.373Z,6.80
2023-03-06T12:58:57.160Z,6.43
2023-03-06T13:01:49.559Z,6.50
2023-03-06T13:04:40.798Z,5.50
2023-03-06T13:07:47.566Z,6.13
2023-03-06T13:10:28.847Z,6.40
2023-03-06T13:13:01.195Z,6.03
2023-03-06T13:15:37.040Z,6.45
2023-03-06T13:18:22.496Z,6.57
2023-03-06T13:20:54.147Z,6.78
2023-03-06T13:23:33.064Z,6.60
2023-03-06T13:26:01.054Z,6.30
2023-03-06T13:28:45.100Z,6.07
2023-03-06T13:31:27.555Z,6.20
2023-03-06T13:34:02.639Z,5.80
2023-03-06T13:36:34.256Z,5.90
2023-03-06T13:39:11.171Z,5.00
2023-03-06T13:41:53.107Z,5.13
2023-03-06T13:44:26.280Z,3.97
2023-03-06T13:46:59.729Z,4.45
2023-03-06T13:49:27.494Z,4.53
2023-03-06T13:51:54.414Z,4.05
2023-03-06T13:54:36.295Z,4.03
2023-03-06T13:57:36.642Z,4.40
2023-03-06T14:00:13.458Z,3.88
2023-03-06T14:03:10.603Z,3.73
2023-03-06T14:05:55.943Z,4.10
2023-03-06T14:08:30.667Z,3.88
2023-03-06T14:11:20.931Z,4.90
2023-03-06T14:13:54.847Z,3.97
2023-03-06T14:16:29.202Z,4.63
2023-03-06T14:19:00.772Z,4.35
2023-03-06T14:21:38.037Z,4.53
2023-03-06T14:24:05.652Z,4.70
2023-03-06T14:26:40.087Z,5.18
2023-03-06T14:29:22.648Z,4.87
2023-03-06T14:31:51.646Z,5.10
2023-03-06T14:34:22.543Z,5.03
2023-03-06T14:36:51.937Z,5.53
2023-03-06T14:39:41.898Z,4.75
2023-03-06T14:42:24.180Z,4.30
2023-03-06T14:45:05.876Z,4.55
2023-03-06T14:47:35.253Z,3.75
2023-03-06T14:50:30.723Z,3.13
2023-03-06T14:53:13.888Z,3.20
2023-03-06T14:55:51.779Z,3.00
2023-03-06T14:58:24.928Z,2.88
2023-03-06T15:00:54.692Z,2.97
2023-03-06T15:03:27.794Z,2.88
2023-03-06T15:05:55.302Z,3.17
2023-03-06T15:11:18.439Z,3.15
2023-03-06T15:14:44.442Z,3.30
2023-03-06T15:17:17.684Z,2.92
2023-03-06T15:19:46.825Z,3.30
2023-03-06T15:22:40.305Z,3.10
2023-03-06T15:25:36.665Z,3.45
2023-03-06T15:28:22.300Z,4.55
2023-03-06T15:31:11.120Z,4.03
2023-03-06T15:33:38.051Z,4.65
2023-03-06T15:36:07.128Z,4.10
2023-03-06T15:38:41.870Z,5.82
2023-03-06T15:41:30.787Z,5.93
2023-03-06T15:44:02.944Z,7.22
2023-03-06T15:46:30.321Z,6.70
2023-03-06T15:49:00.667Z,8.10
2023-03-06T15:51:29.379Z,8.40
2023-03-06T15:54:09.848Z,7.43
2023-03-06T15:56:41.779Z,7.72
2023-03-06T15:59:23.617Z,8.40
2023-03-06T16:01:51.132Z,10.40
2023-03-06T16:04:18.721Z,8.82
2023-03-06T16:06:46.058Z,8.05
2023-03-06T16:09:14.087Z,7.18
2023-03-06T16:11:46.688Z,7.97
2023-03-06T16:14:21.019Z,9.37
2023-03-06T16:16:48.779Z,8.50
2023-03-06T16:19:25.933Z,8.88
2023-03-06T16:21:53.736Z,8.90
2023-03-06T16:24:20.476Z,9.35
2023-03-06T16:26:50.955Z,9.33
2023-03-06T16:29:21.179Z,9.88
2023-03-06T16:31:48.129Z,11.25
2023-03-06T16:34:15.624Z,9.45
2023-03-06T16:36:42.612Z,9.77
2023-03-06T16:39:15.579Z,10.10
2023-03-06T16:41:42.479Z,10.85
2023-03-06T16:44:10.226Z,8.95
2023-03-06T16:46:42.662Z,7.00
2023-03-06T16:49:29.947Z,9.68
2023-03-06T16:51:56.905Z,7.97
2023-03-06T16:54:26.025Z,9.25
2023-03-06T16:56:52.891Z,7.68
2023-03-06T16:59:19.806Z,7.93
2023-03-06T17:01:46.932Z,6.38
2023-03-06T17:04:14.004Z,6.97
2023-03-06T17:06:41.933Z,6.43
2023-03-06T17:09:10.863Z,6.40
2023-03-06T17:11:38.756Z,6.45
2023-03-06T17:14:06.827Z,6.80
2023-03-06T17:16:33.965Z,6.50
2023-03-06T17:19:02.355Z,5.65
2023-03-06T17:21:30.332Z,9.38
2023-03-06T17:23:57.445Z,6.20
2023-03-06T17:26:24.508Z,8.45
2023-03-06T17:28:51.320Z,8.93
2023-03-06T17:31:21.332Z,8.05
2023-03-06T17:33:49.306Z,8.07
2023-03-06T17:36:16.577Z,7.70
2023-03-06T17:38:43.699Z,7.63
2023-03-06T17:41:12.191Z,8.37
2023-03-06T17:43:40.376Z,9.20
2023-03-06T17:46:09.673Z,10.02
2023-03-06T17:48:37.059Z,8.13
2023-03-06T17:51:04.938Z,10.23
2023-03-06T17:53:32.329Z,9.17
2023-03-06T17:55:59.250Z,9.13
2023-03-06T17:58:27.067Z,8.73
2023-03-06T18:00:54.192Z,7.88
2023-03-06T18:03:21.143Z,8.80
2023-03-06T18:05:48.159Z,8.50
2023-03-06T18:08:15.175Z,9.02
2023-03-06T18:10:43.332Z,8.32
2023-03-06T18:13:10.749Z,9.48
2023-03-06T18:15:41.535Z,10.77
2023-03-06T18:18:09.105Z,10.03
2023-03-06T18:20:41.232Z,8.32
2023-03-06T18:23:08.092Z,8.95
2023-03-06T18:25:35.451Z,10.30
2023-03-06T18:28:02.576Z,9.85
2023-03-06T18:30:29.427Z,9.67
2023-03-06T18:32:56.416Z,7.78
2023-03-06T18:35:23.314Z,10.35
2023-03-06T18:37:50.177Z,8.75
2023-03-06T18:40:17.176Z,10.35
2023-03-06T18:42:44.057Z,8.90
2023-03-06T18:45:12.846Z,7.95
2023-03-06T18:47:40.620Z,10.77
2023-03-06T18:50:07.759Z,7.97
2023-03-06T18:52:35.536Z,9.70
2023-03-06T18:55:02.486Z,10.70
2023-03-06T18:57:30.442Z,11.07
2023-03-06T18:59:57.339Z,8.27
2023-03-06T19:02:24.164Z,7.10
2023-03-06T19:04:52.825Z,11.30
2023-03-06T19:07:20.045Z,9.33
2023-03-06T19:09:49.007Z,11.20
2023-03-06T19:12:16.707Z,11.90
2023-03-06T19:14:44.218Z,12.88
2023-03-06T19:17:11.197Z,9.02
2023-03-06T19:19:38.084Z,10.63
2023-03-06T19:22:04.912Z,9.48
2023-03-06T19:24:31.720Z,9.90
2023-03-06T19:26:58.623Z,10.77
2023-03-06T19:29:25.513Z,9.88
2023-03-06T19:31:52.441Z,13.63
2023-03-06T19:34:19.373Z,12.48
2023-03-06T19:36:46.307Z,12.70
2023-03-06T19:39:13.215Z,13.20
2023-03-06T19:41:40.043Z,11.02
2023-03-06T19:44:06.905Z,10.33
2023-03-06T19:46:35.207Z,9.93
2023-03-06T19:49:03.637Z,11.73
2023-03-06T19:51:30.574Z,11.70
2023-03-06T19:53:58.198Z,12.38
2023-03-06T19:56:27.621Z,11.47
2023-03-06T19:58:55.193Z,13.35
2023-03-06T20:01:25.571Z,15.13
2023-03-06T20:03:58.924Z,12.75
2023-03-06T20:06:28.404Z,12.95
2023-03-06T20:08:55.570Z,11.57
2023-03-06T20:11:29.730Z,11.65
2023-03-06T20:13:58.577Z,12.88
2023-03-06T20:16:27.923Z,9.88
2023-03-06T20:18:58.138Z,12.52
2023-03-06T20:21:26.598Z,10.83
2023-03-06T20:23:54.936Z,11.18
2023-03-06T20:26:22.137Z,13.63
2023-03-06T20:28:49.265Z,10.80
2023-03-06T20:31:21.644Z,11.23
2023-03-06T20:33:50.860Z,13.33
2023-03-06T20:36:23.954Z,11.20
2023-03-06T20:38:51.171Z,12.38
2023-03-06T20:41:20.656Z,13.32
2023-03-06T20:43:48.357Z,12.82
2023-03-06T20:46:15.995Z,12.47
2023-03-06T20:48:43.593Z,10.55
2023-03-06T20:51:16.718Z,12.15
2023-03-06T20:53:43.704Z,9.13
2023-03-06T20:56:15.168Z,10.23
2023-03-06T20:58:42.101Z,11.10
2023-03-06T21:01:09.015Z,12.75
2023-03-06T21:03:35.853Z,10.73
2023-03-06T21:06:02.698Z,11.98
2023-03-06T21:08:30.930Z,11.48
2023-03-06T21:10:57.785Z,13.60
2023-03-06T21:13:24.597Z,10.95
2023-03-06T21:15:51.528Z,10.88
2023-03-06T21:18:18.473Z,11.68
2023-03-06T21:20:45.317Z,11.85
2023-03-06T21:23:12.306Z,11.37
2023-03-06T21:25:51.411Z,12.18
2023-03-06T21:28:18.794Z,11.45
2023-03-06T21:30:46.062Z,10.75
2023-03-06T21:33:13.367Z,8.80
2023-03-06T21:35:41.537Z,8.80
2023-03-06T21:38:08.705Z,7.43
2023-03-06T21:40:35.640Z,8.40
2023-03-06T21:43:03.466Z,6.65
2023-03-06T21:45:31.174Z,5.57
2023-03-06T21:47:58.491Z,6.17
2023-03-06T21:50:25.977Z,4.57
2023-03-06T21:52:54.338Z,5.32
2023-03-06T21:55:21.933Z,5.32
2023-03-06T21:57:53.896Z,4.97
2023-03-06T22:00:23.693Z,5.80
2023-03-06T22:02:50.791Z,5.65
2023-03-06T22:05:18.705Z,5.22
2023-03-06T22:07:45.558Z,5.78
2023-03-06T22:10:14.318Z,4.57
2023-03-06T22:12:42.068Z,4.07
2023-03-06T22:15:09.585Z,4.25
2023-03-06T22:17:36.506Z,3.70
2023-03-06T22:20:04.393Z,3.58
2023-03-06T22:22:31.446Z,4.00
2023-03-06T22:24:58.523Z,4.07
2023-03-06T22:27:25.389Z,4.22
2023-03-06T22:29:53.338Z,4.30
2023-03-06T22:32:20.569Z,4.30
2023-03-06T22:34:47.402Z,4.63
2023-03-06T22:37:14.140Z,4.30
2023-03-06T22:39:41.031Z,3.38
2023-03-06T22:42:07.924Z,4.13
2023-03-06T22:44:34.801Z,4.00
2023-03-06T22:47:01.720Z,4.55
2023-03-06T22:49:28.455Z,4.67
2023-03-06T22:51:55.267Z,4.85
2023-03-06T22:54:22.029Z,6.47
2023-03-06T22:56:49.006Z,6.15
2023-03-06T22:59:15.749Z,6.57
2023-03-06T23:01:43.301Z,6.43
2023-03-06T23:04:11.394Z,7.35
2023-03-06T23:06:41.253Z,6.95
2023-03-06T23:09:17.336Z,6.50
2023-03-06T23:12:03.065Z,6.25
2023-03-06T23:14:51.117Z,6.33
2023-03-06T23:17:36.654Z,5.93
2023-03-06T23:20:22.273Z,4.63
2023-03-06T23:23:07.815Z,5.53
2023-03-06T23:25:40.705Z,5.63
2023-03-06T23:28:07.636Z,5.50
2023-03-06T23:30:34.494Z,5.20
2023-03-06T23:33:01.329Z,4.45
2023-03-06T23:35:28.260Z,5.07
2023-03-06T23:37:55.107Z,4.60
2023-03-06T23:40:22.297Z,5.10
2023-03-06T23:42:49.357Z,5.05
2023-03-06T23:45:16.683Z,4.68
2023-03-06T23:47:43.511Z,4.80
2023-03-06T23:50:11.180Z,4.25
2023-03-06T23:52:38.589Z,4.13
2023-03-06T23:55:06.075Z,4.15
2023-03-06T23:57:33.138Z,4.40
